Wetterdaten: Woche 05.09.16 - 11.09.16 (KW36)
Datum Zeit Temp. A. Temp. A. max Feuchte A. Luftdruck Regen Wind Richtung Sonnenschein ET UV Solar Taupunkt Windben
05.09.2016 00:00 13,9 C 13,9 C 93 % 1015,6 hPa 1,6 mm 7,6 km/h (2 Bft) W-SW 0,00 h 0,000 mm 0,0 UV-I 0 W/m 12,7 C 12,7 km/h (3 Bft)
05.09.2016 01:00 13,8 C 13,8 C 93 % 1015,8 hPa 5,8 mm 10,5 km/h (2 Bft) W 0,00 h 0,000 mm 0,0 UV-I 0 W/m 12,8 C 16,6 km/h (3 Bft)
05.09.2016 02:00 13,4 C 13,4 C 91 % 1016,2 hPa 1,0 mm 6,1 km/h (2 Bft) W-SW 0,00 h 0,000 mm 0,0 UV-I 0 W/m 12,0 C 10,5 km/h (2 Bft)
05.09.2016 03:00 12,6 C 12,7 C 92 % 1016,1 hPa 1,8 mm 3,5 km/h (1 Bft) W-SW 0,00 h 0,000 mm 0,0 UV-I 0 W/m 11,3 C 6,6 km/h (2 Bft)
05.09.2016 04:00 12,6 C 12,6 C 91 % 1016,3 hPa 0,8 mm 8,8 km/h (2 Bft) W-SW 0,00 h 0,000 mm 0,0 UV-I 0 W/m 11,2 C 15,2 km/h (3 Bft)
05.09.2016 05:00 12,1 C 12,2 C 88 % 1016,1 hPa 0,4 mm 6,4 km/h (2 Bft) W-SW 0,00 h 0,025 mm 0,0 UV-I 0 W/m 10,1 C 11,8 km/h (2 Bft)
05.09.2016 06:00 11,8 C 11,8 C 85 % 1016,4 hPa 0,2 mm 5,2 km/h (1 Bft) W-SW 0,00 h 0,026 mm 0,0 UV-I 7 W/m 9,3 C 9,5 km/h (2 Bft)
05.09.2016 07:00 12,2 C 12,2 C 81 % 1016,5 hPa 0,0 mm 4,3 km/h (1 Bft) W-SW 0,00 h 0,000 mm 0,0 UV-I 30 W/m 9,1 C 7,4 km/h (2 Bft)
05.09.2016 08:00 12,7 C 12,7 C 83 % 1017,0 hPa 0,0 mm 4,3 km/h (1 Bft) W-SW 0,00 h 0,025 mm 0,7 UV-I 102 W/m 9,8 C 7,1 km/h (2 Bft)
05.09.2016 09:00 13,6 C 13,7 C 80 % 1017,1 hPa 0,0 mm 5,9 km/h (2 Bft) W-SW 0,00 h 0,051 mm 1,1 UV-I 148 W/m 10,3 C 10,0 km/h (2 Bft)
05.09.2016 10:00 14,3 C 14,3 C 77 % 1017,5 hPa 0,0 mm 7,4 km/h (2 Bft) W 0,05 h 0,102 mm 1,7 UV-I 213 W/m 10,3 C 12,5 km/h (3 Bft)
05.09.2016 11:00 14,8 C 14,8 C 75 % 1018,1 hPa 0,0 mm 9,5 km/h (2 Bft) W 0,12 h 0,127 mm 2,3 UV-I 286 W/m 10,4 C 15,3 km/h (3 Bft)
05.09.2016 12:00 15,6 C 15,7 C 73 % 1018,5 hPa 0,0 mm 13,3 km/h (3 Bft) W 0,53 h 0,177 mm 4,1 UV-I 429 W/m 10,9 C 20,2 km/h (4 Bft)
05.09.2016 13:00 17,0 C 17,0 C 68 % 1018,6 hPa 0,0 mm 15,8 km/h (3 Bft) W 1,00 h 0,305 mm 5,9 UV-I 830 W/m 11,1 C 24,2 km/h (4 Bft)
05.09.2016 14:00 16,7 C 16,8 C 68 % 1019,0 hPa 0,0 mm 14,4 km/h (3 Bft) W-SW 0,70 h 0,508 mm 4,7 UV-I 631 W/m 10,7 C 22,6 km/h (4 Bft)
05.09.2016 15:00 16,6 C 16,6 C 68 % 1019,4 hPa 0,0 mm 11,8 km/h (2 Bft) W 0,32 h 0,381 mm 1,9 UV-I 355 W/m 10,6 C 18,3 km/h (3 Bft)
05.09.2016 16:00 15,2 C 15,2 C 75 % 1019,7 hPa 0,0 mm 6,9 km/h (2 Bft) W 0,00 h 0,229 mm 0,7 UV-I 92 W/m 10,7 C 11,2 km/h (2 Bft)
05.09.2016 17:00 15,2 C 15,2 C 77 % 1020,2 hPa 0,0 mm 8,1 km/h (2 Bft) W-SW 0,00 h 0,076 mm 0,8 UV-I 101 W/m 11,2 C 13,1 km/h (3 Bft)
05.09.2016 18:00 14,7 C 14,7 C 79 % 1020,7 hPa 0,0 mm 6,2 km/h (2 Bft) W 0,00 h 0,076 mm 0,6 UV-I 46 W/m 11,0 C 10,3 km/h (2 Bft)
05.09.2016 19:00 14,0 C 14,0 C 82 % 1021,2 hPa 0,0 mm 3,3 km/h (1 Bft) W-SW 0,00 h 0,051 mm 0,0 UV-I 19 W/m 10,9 C 5,7 km/h (1 Bft)
05.09.2016 20:00 13,7 C 13,7 C 84 % 1022,1 hPa 0,0 mm 3,7 km/h (1 Bft) W-SW 0,00 h 0,025 mm 0,0 UV-I 0 W/m 10,9 C 6,4 km/h (2 Bft)
05.09.2016 21:00 13,6 C 13,6 C 82 % 1022,3 hPa 0,0 mm 2,8 km/h (1 Bft) W-SW 0,00 h 0,000 mm 0,0 UV-I 0 W/m 10,6 C 4,9 km/h (1 Bft)
05.09.2016 22:00 13,5 C 13,5 C 81 % 1022,5 hPa 0,0 mm 3,0 km/h (1 Bft) W-SW 0,00 h 0,026 mm 0,0 UV-I 0 W/m 10,3 C 5,4 km/h (1 Bft)
05.09.2016 23:00 13,4 C 13,4 C 82 % 1022,8 hPa 0,0 mm 2,6 km/h (1 Bft) W-SW 0,00 h 0,025 mm 0,0 UV-I 0 W/m 10,3 C 4,6 km/h (1 Bft)
06.09.2016 00:00 13,6 C 13,6 C 82 % 1023,1 hPa 0,0 mm 5,0 km/h (1 Bft) W-SW 0,00 h 0,000 mm 0,0 UV-I 0 W/m 10,5 C 8,7 km/h (2 Bft)
06.09.2016 01:00 13,4 C 13,4 C 85 % 1023,3 hPa 0,0 mm 5,0 km/h (1 Bft) W-SW 0,00 h 0,025 mm 0,0 UV-I 0 W/m 10,9 C 8,6 km/h (2 Bft)
06.09.2016 02:00 13,2 C 13,2 C 88 % 1023,4 hPa 0,0 mm 3,9 km/h (1 Bft) W 0,00 h 0,026 mm 0,0 UV-I 0 W/m 11,1 C 6,7 km/h (2 Bft)
06.09.2016 03:00 13,0 C 13,0 C 89 % 1023,5 hPa 0,0 mm 4,1 km/h (1 Bft) W-SW 0,00 h 0,025 mm 0,0 UV-I 0 W/m 11,2 C 7,3 km/h (2 Bft)
06.09.2016 04:00 12,9 C 12,9 C 89 % 1023,7 hPa 0,0 mm 1,7 km/h (1 Bft) W-SW 0,00 h 0,000 mm 0,0 UV-I 0 W/m 11,2 C 3,2 km/h (1 Bft)
06.09.2016 05:00 12,8 C 12,8 C 90 % 1023,7 hPa 0,0 mm 2,0 km/h (1 Bft) W-SW 0,00 h 0,000 mm 0,0 UV-I 0 W/m 11,2 C 3,8 km/h (1 Bft)
06.09.2016 06:00 12,5 C 12,5 C 93 % 1023,8 hPa 0,6 mm 2,0 km/h (1 Bft) W 0,00 h 0,000 mm 0,0 UV-I 5 W/m 11,3 C 3,7 km/h (1 Bft)
06.09.2016 07:00 12,3 C 12,3 C 94 % 1024,3 hPa 1,0 mm 1,2 km/h (1 Bft) SW 0,00 h 0,000 mm 0,0 UV-I 14 W/m 11,3 C 2,4 km/h (1 Bft)
06.09.2016 08:00 12,6 C 12,6 C 94 % 1024,4 hPa 0,2 mm 0,5 km/h (0 Bft) SW 0,00 h 0,000 mm 0,6 UV-I 44 W/m 11,6 C 1,2 km/h (1 Bft)
06.09.2016 09:00 13,0 C 13,0 C 93 % 1024,7 hPa 0,4 mm 1,5 km/h (1 Bft) W-SW 0,00 h 0,026 mm 0,8 UV-I 83 W/m 11,9 C 2,8 km/h (1 Bft)
06.09.2016 10:00 13,6 C 13,6 C 91 % 1024,8 hPa 0,0 mm 1,9 km/h (1 Bft) W-SW 0,00 h 0,050 mm 1,1 UV-I 123 W/m 12,2 C 3,1 km/h (1 Bft)
06.09.2016 11:00 14,4 C 14,4 C 88 % 1024,9 hPa 0,0 mm 2,2 km/h (1 Bft) NW 0,08 h 0,077 mm 2,0 UV-I 236 W/m 12,5 C 3,5 km/h (1 Bft)
06.09.2016 12:00 15,3 C 15,3 C 85 % 1024,7 hPa 0,0 mm 2,5 km/h (1 Bft) W 0,20 h 0,127 mm 2,8 UV-I 347 W/m 12,8 C 4,1 km/h (1 Bft)
06.09.2016 13:00 15,9 C 15,9 C 82 % 1024,3 hPa 0,0 mm 3,5 km/h (1 Bft) O-NO 0,30 h 0,177 mm 3,8 UV-I 399 W/m 12,8 C 5,6 km/h (1 Bft)
06.09.2016 14:00 16,6 C 16,7 C 76 % 1024,1 hPa 0,0 mm 3,3 km/h (1 Bft) NO 0,47 h 0,229 mm 3,1 UV-I 447 W/m 12,4 C 5,3 km/h (1 Bft)
06.09.2016 15:00 17,2 C 17,3 C 69 % 1023,7 hPa 0,0 mm 3,7 km/h (1 Bft) O-NO 0,58 h 0,229 mm 2,9 UV-I 435 W/m 11,5 C 6,2 km/h (2 Bft)
06.09.2016 16:00 17,5 C 17,5 C 65 % 1023,7 hPa 0,0 mm 4,3 km/h (1 Bft) N 0,00 h 0,254 mm 1,5 UV-I 130 W/m 10,9 C 6,6 km/h (2 Bft)
06.09.2016 17:00 17,2 C 17,3 C 64 % 1023,8 hPa 0,0 mm 3,1 km/h (1 Bft) O 0,00 h 0,101 mm 1,1 UV-I 77 W/m 10,4 C 5,4 km/h (1 Bft)
06.09.2016 18:00 17,1 C 17,1 C 66 % 1023,8 hPa 0,0 mm 3,2 km/h (1 Bft) O 0,00 h 0,051 mm 0,6 UV-I 79 W/m 10,7 C 5,8 km/h (2 Bft)
06.09.2016 19:00 15,3 C 15,4 C 79 % 1023,8 hPa 0,0 mm 1,6 km/h (1 Bft) SO 0,02 h 0,051 mm 0,0 UV-I 22 W/m 11,7 C 3,0 km/h (1 Bft)
06.09.2016 20:00 14,2 C 14,3 C 84 % 1024,0 hPa 0,0 mm 1,1 km/h (1 Bft) SO 0,00 h 0,025 mm 0,0 UV-I 0 W/m 11,6 C 2,1 km/h (1 Bft)
06.09.2016 21:00 13,7 C 13,7 C 87 % 1024,1 hPa 0,0 mm 0,3 km/h (0 Bft) SO 0,00 h 0,000 mm 0,0 UV-I 0 W/m 11,5 C 1,1 km/h (0 Bft)
06.09.2016 22:00 13,1 C 13,1 C 87 % 1024,0 hPa 0,0 mm 0,6 km/h (0 Bft) SO 0,00 h 0,000 mm 0,0 UV-I 0 W/m 11,0 C 1,2 km/h (1 Bft)
06.09.2016 23:00 11,5 C 11,5 C 88 % 1023,6 hPa 0,0 mm 0,7 km/h (0 Bft) SO 0,00 h 0,000 mm 0,0 UV-I 0 W/m 9,6 C 1,1 km/h (1 Bft)
07.09.2016 00:00 10,7 C 10,7 C 90 % 1023,4 hPa 0,0 mm 1,5 km/h (1 Bft) SO 0,00 h 0,000 mm 0,0 UV-I 0 W/m 9,1 C 2,5 km/h (1 Bft)
07.09.2016 01:00 10,2 C 10,2 C 91 % 1022,9 hPa 0,0 mm 1,4 km/h (1 Bft) S-SO 0,00 h 0,000 mm 0,0 UV-I 0 W/m 8,8 C 2,3 km/h (1 Bft)
07.09.2016 02:00 9,0 C 9,0 C 93 % 1022,2 hPa 0,0 mm 0,1 km/h (0 Bft) S-SO 0,00 h 0,000 mm 0,0 UV-I 0 W/m 7,9 C 0,4 km/h (0 Bft)
07.09.2016 03:00 8,8 C 8,8 C 95 % 1021,6 hPa 0,0 mm 0,7 km/h (0 Bft) S-SO 0,00 h 0,000 mm 0,0 UV-I 0 W/m 8,0 C 1,8 km/h (1 Bft)
07.09.2016 04:00 9,5 C 9,6 C 95 % 1021,0 hPa 0,0 mm 1,2 km/h (1 Bft) O-SO 0,00 h 0,000 mm 0,0 UV-I 0 W/m 8,8 C 2,5 km/h (1 Bft)
07.09.2016 05:00 8,4 C 8,5 C 95 % 1020,2 hPa 0,0 mm 1,2 km/h (1 Bft) O-SO 0,00 h 0,000 mm 0,0 UV-I 0 W/m 7,7 C 2,1 km/h (1 Bft)
07.09.2016 06:00 9,2 C 9,2 C 96 % 1019,5 hPa 0,0 mm 3,3 km/h (1 Bft) NO 0,00 h 0,000 mm 0,0 UV-I 5 W/m 8,6 C 5,4 km/h (1 Bft)
07.09.2016 07:00 9,3 C 9,3 C 96 % 1019,3 hPa 0,0 mm 3,4 km/h (1 Bft) O-NO 0,00 h 0,000 mm 0,0 UV-I 22 W/m 8,7 C 5,6 km/h (1 Bft)
07.09.2016 08:00 9,6 C 9,6 C 96 % 1019,2 hPa 0,0 mm 4,6 km/h (1 Bft) O-NO 0,00 h 0,000 mm 0,8 UV-I 69 W/m 9,1 C 7,8 km/h (2 Bft)
07.09.2016 09:00 10,9 C 10,9 C 94 % 1019,2 hPa 0,0 mm 2,7 km/h (1 Bft) NO 0,12 h 0,025 mm 1,3 UV-I 177 W/m 10,0 C 4,7 km/h (1 Bft)
07.09.2016 10:00 13,7 C 13,7 C 86 % 1019,2 hPa 0,0 mm 2,2 km/h (1 Bft) O 0,48 h 0,102 mm 3,0 UV-I 385 W/m 11,4 C 3,9 km/h (1 Bft)
07.09.2016 11:00 16,0 C 16,0 C 79 % 1019,2 hPa 0,0 mm 3,0 km/h (1 Bft) O-NO 1,00 h 0,229 mm 4,7 UV-I 667 W/m 12,4 C 4,6 km/h (1 Bft)
07.09.2016 12:00 17,7 C 17,8 C 74 % 1018,7 hPa 0,0 mm 3,1 km/h (1 Bft) O 1,00 h 0,355 mm 5,4 UV-I 727 W/m 13,1 C 5,0 km/h (1 Bft)
07.09.2016 13:00 19,1 C 19,1 C 74 % 1018,5 hPa 0,0 mm 3,6 km/h (1 Bft) W-NW 1,00 h 0,407 mm 5,6 UV-I 733 W/m 14,2 C 5,8 km/h (2 Bft)
07.09.2016 14:00 19,8 C 19,8 C 73 % 1018,2 hPa 0,0 mm 3,7 km/h (1 Bft) O-NO 1,00 h 0,431 mm 5,0 UV-I 683 W/m 14,7 C 6,0 km/h (2 Bft)
07.09.2016 15:00 20,1 C 20,2 C 72 % 1017,9 hPa 0,0 mm 3,5 km/h (1 Bft) N 1,00 h 0,407 mm 3,7 UV-I 586 W/m 14,9 C 5,9 km/h (2 Bft)
07.09.2016 16:00 20,3 C 20,3 C 72 % 1017,3 hPa 0,0 mm 3,9 km/h (1 Bft) O-NO 0,40 h 0,355 mm 2,6 UV-I 219 W/m 15,1 C 6,6 km/h (2 Bft)
07.09.2016 17:00 20,0 C 20,1 C 73 % 1017,0 hPa 0,0 mm 4,1 km/h (1 Bft) NO 0,00 h 0,127 mm 0,0 UV-I 31 W/m 15,0 C 6,7 km/h (2 Bft)
07.09.2016 18:00 19,0 C 19,0 C 77 % 1016,5 hPa 0,0 mm 1,6 km/h (1 Bft) O-NO 0,00 h 0,051 mm 0,0 UV-I 25 W/m 14,8 C 3,0 km/h (1 Bft)
07.09.2016 19:00 17,0 C 17,1 C 84 % 1016,3 hPa 0,0 mm 1,0 km/h (0 Bft) O-NO 0,00 h 0,026 mm 0,0 UV-I 16 W/m 14,3 C 1,9 km/h (1 Bft)
07.09.2016 20:00 14,4 C 14,5 C 90 % 1016,3 hPa 0,0 mm 0,9 km/h (0 Bft) O-SO 0,00 h 0,000 mm 0,0 UV-I 0 W/m 12,9 C 1,8 km/h (1 Bft)
07.09.2016 21:00 13,6 C 13,6 C 93 % 1016,2 hPa 0,0 mm 0,1 km/h (0 Bft) N 0,00 h 0,000 mm 0,0 UV-I 0 W/m 12,4 C 0,3 km/h (0 Bft)
07.09.2016 22:00 12,9 C 12,9 C 93 % 1015,8 hPa 0,0 mm 0,1 km/h (0 Bft) O-SO 0,00 h 0,000 mm 0,0 UV-I 0 W/m 11,9 C 0,4 km/h (0 Bft)
07.09.2016 23:00 12,2 C 12,3 C 94 % 1015,4 hPa 0,0 mm 0,0 km/h (0 Bft) N 0,00 h 0,000 mm 0,0 UV-I 0 W/m 11,3 C 0,0 km/h (0 Bft)
08.09.2016 00:00 11,5 C 11,6 C 95 % 1015,1 hPa 0,0 mm 0,0 km/h (0 Bft) N 0,00 h 0,000 mm 0,0 UV-I 0 W/m 10,7 C 0,0 km/h (0 Bft)
08.09.2016 01:00 11,3 C 11,4 C 94 % 1014,9 hPa 0,0 mm 0,0 km/h (0 Bft) N 0,00 h 0,000 mm 0,0 UV-I 0 W/m 10,4 C 0,0 km/h (0 Bft)
08.09.2016 02:00 10,7 C 10,7 C 94 % 1014,4 hPa 0,0 mm 0,0 km/h (0 Bft) N 0,00 h 0,000 mm 0,0 UV-I 0 W/m 9,8 C 0,0 km/h (0 Bft)
08.09.2016 03:00 10,5 C 10,5 C 95 % 1014,2 hPa 0,0 mm 0,0 km/h (0 Bft) N 0,00 h 0,000 mm 0,0 UV-I 0 W/m 9,7 C 0,0 km/h (0 Bft)
08.09.2016 04:00 10,9 C 11,0 C 92 % 1014,1 hPa 0,0 mm 1,0 km/h (0 Bft) S-SO 0,00 h 0,000 mm 0,0 UV-I 0 W/m 9,8 C 1,6 km/h (1 Bft)
08.09.2016 05:00 10,4 C 10,4 C 93 % 1014,3 hPa 0,0 mm 0,0 km/h (0 Bft) N 0,00 h 0,000 mm 0,0 UV-I 0 W/m 9,3 C 0,0 km/h (0 Bft)
08.09.2016 06:00 9,9 C 9,9 C 95 % 1014,5 hPa 0,0 mm 0,0 km/h (0 Bft) N 0,00 h 0,000 mm 0,0 UV-I 6 W/m 9,2 C 0,0 km/h (0 Bft)
08.09.2016 07:00 10,5 C 10,5 C 95 % 1014,7 hPa 0,0 mm 0,0 km/h (0 Bft) N 0,00 h 0,000 mm 0,0 UV-I 17 W/m 9,6 C 0,0 km/h (0 Bft)
08.09.2016 08:00 13,5 C 13,5 C 90 % 1014,7 hPa 0,0 mm 0,0 km/h (0 Bft) N 0,80 h 0,000 mm 0,9 UV-I 212 W/m 11,8 C 0,0 km/h (0 Bft)
08.09.2016 09:00 17,3 C 17,3 C 81 % 1014,7 hPa 0,0 mm 0,0 km/h (0 Bft) N 1,00 h 0,102 mm 2,2 UV-I 407 W/m 13,9 C 0,0 km/h (0 Bft)
08.09.2016 10:00 20,3 C 20,3 C 71 % 1014,8 hPa 0,0 mm 2,9 km/h (1 Bft) W-NW 1,00 h 0,228 mm 3,6 UV-I 555 W/m 14,9 C 4,7 km/h (1 Bft)
08.09.2016 11:00 22,7 C 22,7 C 60 % 1014,4 hPa 0,0 mm 6,7 km/h (2 Bft) W 1,00 h 0,330 mm 4,7 UV-I 660 W/m 14,5 C 11,0 km/h (2 Bft)
08.09.2016 12:00 23,5 C 23,5 C 59 % 1014,1 hPa 0,0 mm 6,4 km/h (2 Bft) W-NW 1,00 h 0,432 mm 5,4 UV-I 714 W/m 15,1 C 10,0 km/h (2 Bft)
08.09.2016 13:00 24,1 C 24,1 C 56 % 1014,0 hPa 0,0 mm 7,9 km/h (2 Bft) W 1,00 h 0,483 mm 5,4 UV-I 724 W/m 14,8 C 12,3 km/h (3 Bft)
08.09.2016 14:00 24,4 C 24,4 C 52 % 1013,7 hPa 0,0 mm 7,0 km/h (2 Bft) W-NW 1,00 h 0,482 mm 4,9 UV-I 681 W/m 14,0 C 11,3 km/h (2 Bft)
08.09.2016 15:00 24,4 C 24,5 C 51 % 1013,5 hPa 0,0 mm 6,7 km/h (2 Bft) W-NW 1,00 h 0,458 mm 3,8 UV-I 587 W/m 13,5 C 10,8 km/h (2 Bft)
08.09.2016 16:00 24,3 C 24,3 C 49 % 1013,2 hPa 0,0 mm 6,3 km/h (2 Bft) W-NW 0,40 h 0,406 mm 2,6 UV-I 221 W/m 13,0 C 10,0 km/h (2 Bft)
08.09.2016 17:00 23,7 C 23,7 C 55 % 1013,0 hPa 0,0 mm 4,7 km/h (1 Bft) W-NW 0,00 h 0,203 mm 0,0 UV-I 39 W/m 14,0 C 7,8 km/h (2 Bft)
08.09.2016 18:00 22,2 C 22,2 C 61 % 1012,9 hPa 0,0 mm 3,1 km/h (1 Bft) W-SW 0,00 h 0,076 mm 0,0 UV-I 29 W/m 14,4 C 5,2 km/h (1 Bft)
08.09.2016 19:00 19,9 C 20,0 C 70 % 1013,0 hPa 0,0 mm 3,0 km/h (1 Bft) S 0,00 h 0,051 mm 0,0 UV-I 15 W/m 14,2 C 4,6 km/h (1 Bft)
08.09.2016 20:00 17,3 C 17,4 C 80 % 1013,4 hPa 0,0 mm 2,0 km/h (1 Bft) S 0,00 h 0,026 mm 0,0 UV-I 0 W/m 13,9 C 3,3 km/h (1 Bft)
08.09.2016 21:00 16,3 C 16,3 C 84 % 1013,8 hPa 0,0 mm 0,6 km/h (0 Bft) S 0,00 h 0,025 mm 0,0 UV-I 0 W/m 13,6 C 1,6 km/h (1 Bft)
08.09.2016 22:00 15,2 C 15,3 C 87 % 1014,1 hPa 0,0 mm 0,7 km/h (0 Bft) NW 0,00 h 0,025 mm 0,0 UV-I 0 W/m 13,1 C 1,6 km/h (1 Bft)
08.09.2016 23:00 14,9 C 14,9 C 88 % 1014,6 hPa 0,0 mm 0,5 km/h (0 Bft) O-NO 0,00 h 0,000 mm 0,0 UV-I 0 W/m 12,9 C 1,5 km/h (1 Bft)
09.09.2016 00:00 14,8 C 14,8 C 88 % 1014,8 hPa 0,0 mm 0,2 km/h (0 Bft) O-NO 0,00 h 0,000 mm 0,0 UV-I 0 W/m 12,9 C 0,6 km/h (0 Bft)
09.09.2016 01:00 14,9 C 14,9 C 88 % 1014,9 hPa 0,0 mm 0,0 km/h (0 Bft) N 0,00 h 0,000 mm 0,0 UV-I 0 W/m 12,9 C 0,0 km/h (0 Bft)
09.09.2016 02:00 14,7 C 14,7 C 89 % 1015,1 hPa 0,0 mm 0,0 km/h (0 Bft) N 0,00 h 0,000 mm 0,0 UV-I 0 W/m 12,9 C 0,0 km/h (0 Bft)
09.09.2016 03:00 15,0 C 15,0 C 88 % 1015,0 hPa 0,0 mm 0,1 km/h (0 Bft) O-NO 0,00 h 0,000 mm 0,0 UV-I 0 W/m 13,1 C 0,5 km/h (0 Bft)
09.09.2016 04:00 14,9 C 14,9 C 89 % 1015,0 hPa 0,0 mm 0,0 km/h (0 Bft) N 0,00 h 0,000 mm 0,0 UV-I 0 W/m 13,1 C 0,0 km/h (0 Bft)
09.09.2016 05:00 14,9 C 14,9 C 89 % 1014,9 hPa 0,0 mm 0,0 km/h (0 Bft) N 0,00 h 0,000 mm 0,0 UV-I 0 W/m 13,1 C 0,0 km/h (0 Bft)
09.09.2016 06:00 14,9 C 14,9 C 90 % 1015,1 hPa 0,0 mm 0,0 km/h (0 Bft) N 0,00 h 0,000 mm 0,0 UV-I 6 W/m 13,2 C 0,0 km/h (0 Bft)
09.09.2016 07:00 14,7 C 14,7 C 90 % 1015,3 hPa 0,0 mm 0,0 km/h (0 Bft) N 0,00 h 0,000 mm 0,0 UV-I 28 W/m 13,0 C 0,0 km/h (0 Bft)
09.09.2016 08:00 16,2 C 16,2 C 88 % 1015,5 hPa 0,0 mm 0,0 km/h (0 Bft) N 0,75 h 0,025 mm 0,9 UV-I 175 W/m 14,1 C 0,0 km/h (0 Bft)
09.09.2016 09:00 18,8 C 18,8 C 79 % 1015,5 hPa 0,0 mm 0,0 km/h (0 Bft) N 1,00 h 0,102 mm 2,0 UV-I 367 W/m 15,1 C 0,0 km/h (0 Bft)
09.09.2016 10:00 20,5 C 20,5 C 71 % 1015,5 hPa 0,0 mm 0,0 km/h (0 Bft) N 1,00 h 0,203 mm 3,3 UV-I 514 W/m 15,0 C 0,0 km/h (0 Bft)
09.09.2016 11:00 22,3 C 22,3 C 69 % 1015,3 hPa 0,0 mm 3,7 km/h (1 Bft) NW 0,87 h 0,305 mm 4,1 UV-I 617 W/m 16,2 C 6,1 km/h (2 Bft)
09.09.2016 12:00 22,6 C 22,7 C 67 % 1015,0 hPa 0,0 mm 4,4 km/h (1 Bft) N-NW 0,65 h 0,381 mm 4,2 UV-I 593 W/m 16,1 C 7,1 km/h (2 Bft)
09.09.2016 13:00 23,1 C 23,1 C 62 % 1014,9 hPa 0,0 mm 4,9 km/h (1 Bft) O-NO 0,75 h 0,381 mm 4,5 UV-I 620 W/m 15,3 C 8,1 km/h (2 Bft)
09.09.2016 14:00 23,3 C 23,3 C 61 % 1014,7 hPa 0,0 mm 5,1 km/h (1 Bft) NO 0,58 h 0,381 mm 3,8 UV-I 508 W/m 15,4 C 8,3 km/h (2 Bft)
09.09.2016 15:00 22,6 C 22,7 C 63 % 1014,5 hPa 0,0 mm 2,4 km/h (1 Bft) O-NO 0,47 h 0,330 mm 2,7 UV-I 347 W/m 15,1 C 4,1 km/h (1 Bft)
09.09.2016 16:00 22,9 C 22,9 C 60 % 1014,3 hPa 0,0 mm 3,5 km/h (1 Bft) O-NO 0,27 h 0,229 mm 1,9 UV-I 215 W/m 14,6 C 5,9 km/h (2 Bft)
09.09.2016 17:00 22,3 C 22,3 C 64 % 1014,4 hPa 0,0 mm 2,9 km/h (1 Bft) O-NO 0,00 h 0,152 mm 1,2 UV-I 71 W/m 15,0 C 5,2 km/h (1 Bft)
09.09.2016 18:00 21,5 C 21,5 C 68 % 1014,5 hPa 0,0 mm 2,1 km/h (1 Bft) O 0,00 h 0,076 mm 0,8 UV-I 42 W/m 15,3 C 3,9 km/h (1 Bft)
09.09.2016 19:00 19,4 C 19,4 C 76 % 1014,6 hPa 0,0 mm 1,2 km/h (1 Bft) O 0,00 h 0,051 mm 0,0 UV-I 14 W/m 14,9 C 2,1 km/h (1 Bft)
09.09.2016 20:00 16,5 C 16,6 C 86 % 1015,0 hPa 0,0 mm 0,0 km/h (0 Bft) N 0,00 h 0,026 mm 0,0 UV-I 0 W/m 14,1 C 0,0 km/h (0 Bft)
09.09.2016 21:00 15,5 C 15,5 C 88 % 1015,2 hPa 0,0 mm 0,6 km/h (0 Bft) O-SO 0,00 h 0,000 mm 0,0 UV-I 0 W/m 13,6 C 1,1 km/h (1 Bft)
09.09.2016 22:00 15,1 C 15,1 C 90 % 1015,3 hPa 0,0 mm 0,1 km/h (0 Bft) N 0,00 h 0,000 mm 0,0 UV-I 0 W/m 13,4 C 0,6 km/h (0 Bft)
09.09.2016 23:00 14,4 C 14,4 C 91 % 1015,2 hPa 0,0 mm 0,3 km/h (0 Bft) NO 0,00 h 0,000 mm 0,0 UV-I 0 W/m 13,0 C 0,9 km/h (0 Bft)
10.09.2016 00:00 14,0 C 14,0 C 92 % 1015,0 hPa 0,0 mm 0,0 km/h (0 Bft) N 0,00 h 0,000 mm 0,0 UV-I 0 W/m 12,6 C 0,0 km/h (0 Bft)
10.09.2016 01:00 13,5 C 13,5 C 93 % 1014,8 hPa 0,0 mm 0,0 km/h (0 Bft) N 0,00 h 0,000 mm 0,0 UV-I 0 W/m 12,4 C 0,0 km/h (0 Bft)
10.09.2016 02:00 12,9 C 12,9 C 94 % 1014,7 hPa 0,0 mm 0,0 km/h (0 Bft) N 0,00 h 0,000 mm 0,0 UV-I 0 W/m 11,9 C 0,0 km/h (0 Bft)
10.09.2016 03:00 13,0 C 13,0 C 93 % 1014,8 hPa 0,0 mm 0,0 km/h (0 Bft) N 0,00 h 0,000 mm 0,0 UV-I 0 W/m 11,9 C 0,0 km/h (0 Bft)
10.09.2016 04:00 12,6 C 12,6 C 94 % 1014,6 hPa 0,0 mm 0,0 km/h (0 Bft) N 0,00 h 0,000 mm 0,0 UV-I 0 W/m 11,6 C 0,0 km/h (0 Bft)
10.09.2016 05:00 12,3 C 12,3 C 94 % 1014,6 hPa 0,0 mm 0,0 km/h (0 Bft) N 0,00 h 0,000 mm 0,0 UV-I 0 W/m 11,4 C 0,0 km/h (0 Bft)
10.09.2016 06:00 12,2 C 12,2 C 95 % 1014,9 hPa 0,0 mm 0,0 km/h (0 Bft) N 0,00 h 0,000 mm 0,0 UV-I 6 W/m 11,4 C 0,0 km/h (0 Bft)
10.09.2016 07:00 12,4 C 12,4 C 94 % 1015,2 hPa 0,0 mm 0,0 km/h (0 Bft) N 0,00 h 0,000 mm 0,0 UV-I 22 W/m 11,5 C 0,0 km/h (0 Bft)
10.09.2016 08:00 14,7 C 14,7 C 91 % 1015,2 hPa 0,0 mm 0,0 km/h (0 Bft) N 0,63 h 0,000 mm 0,8 UV-I 169 W/m 13,3 C 0,0 km/h (0 Bft)
10.09.2016 09:00 18,0 C 18,0 C 84 % 1015,3 hPa 0,0 mm 0,4 km/h (0 Bft) NW 1,00 h 0,076 mm 2,0 UV-I 370 W/m 15,1 C 0,6 km/h (0 Bft)
10.09.2016 10:00 20,5 C 20,5 C 75 % 1015,3 hPa 0,0 mm 4,8 km/h (1 Bft) NW 1,00 h 0,203 mm 3,2 UV-I 513 W/m 15,9 C 7,5 km/h (2 Bft)
10.09.2016 11:00 21,7 C 21,7 C 72 % 1015,1 hPa 0,0 mm 4,5 km/h (1 Bft) W-NW 1,00 h 0,305 mm 4,1 UV-I 592 W/m 16,5 C 7,5 km/h (2 Bft)
10.09.2016 12:00 22,4 C 22,5 C 69 % 1014,7 hPa 0,0 mm 3,6 km/h (1 Bft) N-NW 1,00 h 0,356 mm 4,9 UV-I 659 W/m 16,4 C 6,1 km/h (2 Bft)
10.09.2016 13:00 23,2 C 23,3 C 67 % 1014,4 hPa 0,0 mm 3,9 km/h (1 Bft) N-NW 0,97 h 0,406 mm 4,8 UV-I 636 W/m 16,8 C 6,4 km/h (2 Bft)
10.09.2016 14:00 23,5 C 23,6 C 67 % 1014,1 hPa 0,0 mm 4,5 km/h (1 Bft) NW 0,82 h 0,407 mm 4,1 UV-I 548 W/m 17,1 C 7,1 km/h (2 Bft)
10.09.2016 15:00 23,3 C 23,4 C 68 % 1013,8 hPa 0,0 mm 3,4 km/h (1 Bft) N 0,85 h 0,355 mm 3,2 UV-I 461 W/m 17,1 C 5,4 km/h (1 Bft)
10.09.2016 16:00 23,4 C 23,4 C 68 % 1013,5 hPa 0,0 mm 3,3 km/h (1 Bft) N-NW 0,38 h 0,305 mm 2,0 UV-I 260 W/m 17,0 C 5,8 km/h (2 Bft)
10.09.2016 17:00 22,6 C 22,6 C 69 % 1013,4 hPa 0,0 mm 1,8 km/h (1 Bft) NO 0,00 h 0,178 mm 1,1 UV-I 79 W/m 16,6 C 3,5 km/h (1 Bft)
10.09.2016 18:00 20,8 C 20,9 C 79 % 1013,4 hPa 0,0 mm 1,1 km/h (1 Bft) O 0,00 h 0,051 mm 0,0 UV-I 45 W/m 17,0 C 2,4 km/h (1 Bft)
10.09.2016 19:00 18,9 C 19,0 C 85 % 1013,7 hPa 0,0 mm 1,8 km/h (1 Bft) O 0,02 h 0,025 mm 0,0 UV-I 15 W/m 16,3 C 2,8 km/h (1 Bft)
10.09.2016 20:00 17,4 C 17,4 C 89 % 1014,2 hPa 0,0 mm 0,6 km/h (0 Bft) O 0,00 h 0,000 mm 0,0 UV-I 0 W/m 15,5 C 1,4 km/h (1 Bft)
10.09.2016 21:00 16,7 C 16,7 C 90 % 1014,5 hPa 0,0 mm 0,1 km/h (0 Bft) O 0,00 h 0,000 mm 0,0 UV-I 0 W/m 15,0 C 0,4 km/h (0 Bft)
10.09.2016 22:00 16,0 C 16,1 C 90 % 1014,7 hPa 0,0 mm 0,7 km/h (0 Bft) SO 0,00 h 0,000 mm 0,0 UV-I 0 W/m 14,4 C 1,5 km/h (1 Bft)
10.09.2016 23:00 14,9 C 14,9 C 92 % 1015,1 hPa 0,0 mm 0,2 km/h (0 Bft) SW 0,00 h 0,000 mm 0,0 UV-I 0 W/m 13,7 C 0,6 km/h (0 Bft)
11.09.2016 00:00 15,3 C 15,3 C 90 % 1015,3 hPa 0,0 mm 2,1 km/h (1 Bft) S 0,00 h 0,000 mm 0,0 UV-I 0 W/m 13,6 C 3,8 km/h (1 Bft)
11.09.2016 01:00 14,5 C 14,6 C 91 % 1015,2 hPa 0,0 mm 0,7 km/h (0 Bft) S 0,00 h 0,000 mm 0,0 UV-I 0 W/m 13,0 C 2,0 km/h (1 Bft)
11.09.2016 02:00 13,8 C 13,9 C 92 % 1015,2 hPa 0,0 mm 0,2 km/h (0 Bft) W-NW 0,00 h 0,000 mm 0,0 UV-I 0 W/m 12,6 C 0,6 km/h (0 Bft)
11.09.2016 03:00 14,2 C 14,2 C 91 % 1015,3 hPa 0,0 mm 0,4 km/h (0 Bft) W-NW 0,00 h 0,000 mm 0,0 UV-I 0 W/m 12,8 C 1,5 km/h (1 Bft)
11.09.2016 04:00 14,2 C 14,2 C 91 % 1015,3 hPa 0,0 mm 0,1 km/h (0 Bft) N 0,00 h 0,000 mm 0,0 UV-I 0 W/m 12,7 C 0,1 km/h (0 Bft)
11.09.2016 05:00 13,3 C 13,3 C 93 % 1015,5 hPa 0,0 mm 0,0 km/h (0 Bft) N 0,00 h 0,000 mm 0,0 UV-I 0 W/m 12,1 C 0,0 km/h (0 Bft)
11.09.2016 06:00 12,7 C 12,8 C 94 % 1015,8 hPa 0,0 mm 0,0 km/h (0 Bft) N 0,00 h 0,000 mm 0,0 UV-I 6 W/m 11,9 C 0,0 km/h (0 Bft)
11.09.2016 07:00 13,5 C 13,5 C 94 % 1016,2 hPa 0,0 mm 0,0 km/h (0 Bft) N 0,00 h 0,000 mm 0,0 UV-I 34 W/m 12,5 C 0,0 km/h (0 Bft)
11.09.2016 08:00 15,7 C 15,7 C 91 % 1016,5 hPa 0,0 mm 0,0 km/h (0 Bft) N 0,07 h 0,025 mm 0,7 UV-I 108 W/m 14,2 C 0,0 km/h (0 Bft)
11.09.2016 09:00 18,5 C 18,5 C 84 % 1016,8 hPa 0,0 mm 0,0 km/h (0 Bft) N 1,00 h 0,051 mm 1,9 UV-I 350 W/m 15,8 C 0,0 km/h (0 Bft)
11.09.2016 10:00 20,9 C 20,9 C 72 % 1016,9 hPa 0,0 mm 0,0 km/h (0 Bft) N 1,00 h 0,203 mm 3,0 UV-I 488 W/m 15,7 C 0,0 km/h (0 Bft)
11.09.2016 11:00 22,3 C 22,3 C 65 % 1017,0 hPa 0,0 mm 1,5 km/h (1 Bft) NW 1,00 h 0,280 mm 4,2 UV-I 613 W/m 15,5 C 2,2 km/h (1 Bft)
11.09.2016 12:00 22,7 C 22,8 C 65 % 1016,9 hPa 0,0 mm 1,1 km/h (0 Bft) W-SW 1,00 h 0,381 mm 4,9 UV-I 686 W/m 15,9 C 1,9 km/h (1 Bft)
11.09.2016 13:00 23,4 C 23,4 C 65 % 1016,6 hPa 0,0 mm 3,6 km/h (1 Bft) O-NO 0,57 h 0,432 mm 4,1 UV-I 513 W/m 16,3 C 5,7 km/h (1 Bft)
11.09.2016 14:00 22,9 C 22,9 C 67 % 1016,3 hPa 0,0 mm 3,3 km/h (1 Bft) O 0,43 h 0,330 mm 3,2 UV-I 378 W/m 16,3 C 5,3 km/h (1 Bft)
11.09.2016 15:00 23,6 C 23,7 C 64 % 1015,9 hPa 0,0 mm 4,4 km/h (1 Bft) O-NO 0,57 h 0,254 mm 2,8 UV-I 438 W/m 16,3 C 7,3 km/h (2 Bft)
11.09.2016 16:00 21,3 C 21,3 C 76 % 1016,0 hPa 0,0 mm 1,8 km/h (1 Bft) O 0,00 h 0,305 mm 0,9 UV-I 90 W/m 16,9 C 3,5 km/h (1 Bft)
11.09.2016 17:00 20,2 C 20,2 C 80 % 1016,0 hPa 0,0 mm 0,1 km/h (0 Bft) O-NO 0,00 h 0,050 mm 0,7 UV-I 94 W/m 16,7 C 0,2 km/h (0 Bft)
11.09.2016 18:00 19,1 C 19,2 C 82 % 1016,0 hPa 0,0 mm 0,0 km/h (0 Bft) N 0,00 h 0,051 mm 0,5 UV-I 42 W/m 15,9 C 0,0 km/h (0 Bft)
11.09.2016 19:00 17,5 C 17,5 C 84 % 1016,3 hPa 0,0 mm 0,5 km/h (0 Bft) SO 0,00 h 0,026 mm 0,0 UV-I 13 W/m 14,8 C 1,2 km/h (1 Bft)
11.09.2016 20:00 16,5 C 16,5 C 86 % 1016,6 hPa 0,0 mm 0,5 km/h (0 Bft) SW 0,00 h 0,000 mm 0,0 UV-I 0 W/m 14,1 C 1,4 km/h (1 Bft)
11.09.2016 21:00 15,7 C 15,7 C 87 % 1016,7 hPa 0,0 mm 0,7 km/h (0 Bft) NW 0,00 h 0,000 mm 0,0 UV-I 0 W/m 13,4 C 1,6 km/h (1 Bft)
11.09.2016 22:00 14,6 C 14,6 C 88 % 1016,9 hPa 0,0 mm 0,3 km/h (0 Bft) NW 0,00 h 0,000 mm 0,0 UV-I 0 W/m 12,7 C 1,0 km/h (0 Bft)
11.09.2016 23:00 13,9 C 13,9 C 90 % 1017,1 hPa 0,0 mm 0,3 km/h (0 Bft) NW 0,00 h 0,000 mm 0,0 UV-I 0 W/m 12,3 C 0,6 km/h (0 Bft)
Min-Datum _ 07.09.16 07.09.16 08.09.16 08.09.16 - 11.09.16 - - - - - 07.09.16 11.09.16
_ Min-Zeit 05:39 05:41 16:16 18:32 - 23:12 - - - - - 05:40 23:12
Minimum _ 7,7 C 7,7 C 46 % 1012,8 hPa - 0,0 km/h (0 Bft) - - - - - 6,8 C 0,0 km/h (0 Bft)
Max-Datum _ 08.09.16 08.09.16 07.09.16 06.09.16 05.09.16 05.09.16 - 11.09.16 05.09.16 05.09.16 06.09.16 10.09.16 05.09.16
_ Max-Zeit 15:22 15:22 09:03 11:34 01:27 12:36 - 15:07 14:01 13:35 12:45 15:20 14:21
Maximum _ 24,7 C 24,7 C 97 % 1025,1 hPa 5,8 mm 23,8 km/h
W (4 Bft)
- 0,02 h 0,508 mm 6,5 UV-I 1013 W/m 18,4 C 37,0 km/h
W-SW (5 Bft)
Durchschnitt _ 16,1 C 16,1 C 82 % 1017,3 hPa #13,8 mm 2,5 km/h (1 Bft) W-SW #38:12 h #17,247 mm 2,7 UV-I 162 W/m 12,7 C 4,3 km/h (1 Bft)